createdAt,value
2022-11-27T00:09:35.620Z,1.70
2022-11-27T00:19:39.063Z,2.00
2022-11-27T00:29:44.024Z,2.10
2022-11-27T00:39:48.519Z,1.90
2022-11-27T00:49:52.991Z,2.20
2022-11-27T00:59:56.158Z,2.97
2022-11-27T01:10:00.720Z,2.87
2022-11-27T01:20:03.744Z,2.00
2022-11-27T01:30:09.745Z,3.27
2022-11-27T01:40:13.452Z,2.43
2022-11-27T01:50:23.451Z,3.30
2022-11-27T02:00:27.185Z,4.10
2022-11-27T02:10:45.629Z,3.27
2022-11-27T02:20:55.401Z,5.23
2022-11-27T02:31:05.430Z,4.93
2022-11-27T02:41:13.853Z,5.03
2022-11-27T02:51:21.842Z,6.10
2022-11-27T03:01:28.794Z,6.30
2022-11-27T03:11:33.561Z,7.50
2022-11-27T03:21:40.419Z,7.53
2022-11-27T03:31:45.392Z,7.10
2022-11-27T03:41:55.547Z,6.47
2022-11-27T03:52:08.930Z,7.63
2022-11-27T04:02:13.957Z,7.00
2022-11-27T04:12:18.243Z,8.07
2022-11-27T04:22:21.109Z,7.30
2022-11-27T04:32:25.498Z,7.40
2022-11-27T04:42:28.664Z,6.77
2022-11-27T04:52:33.032Z,6.77
2022-11-27T05:02:36.152Z,6.17
2022-11-27T05:12:40.625Z,6.77
2022-11-27T05:22:44.283Z,6.13
2022-11-27T05:32:48.653Z,5.57
2022-11-27T05:42:51.797Z,5.07
2022-11-27T05:52:56.127Z,4.20
2022-11-27T06:02:59.301Z,5.63
2022-11-27T06:13:03.738Z,5.23
2022-11-27T06:23:06.693Z,4.37
2022-11-27T06:33:11.090Z,3.77
2022-11-27T06:43:13.951Z,3.50
2022-11-27T06:53:18.604Z,3.00
2022-11-27T07:03:22.552Z,4.00
2022-11-27T07:13:26.898Z,3.43
2022-11-27T07:23:29.911Z,3.40
2022-11-27T07:33:34.322Z,3.67
2022-11-27T07:43:38.642Z,3.73
2022-11-27T07:53:43.628Z,3.57
2022-11-27T08:03:47.171Z,2.70
2022-11-27T08:13:52.285Z,3.40
2022-11-27T08:23:55.804Z,2.87
2022-11-27T08:34:00.239Z,2.63
2022-11-27T08:44:06.771Z,3.00
2022-11-27T08:54:13.778Z,2.53
2022-11-27T09:04:16.761Z,2.80
2022-11-27T09:14:21.095Z,2.80
2022-11-27T09:24:25.015Z,3.33
2022-11-27T09:34:32.292Z,2.70
2022-11-27T09:44:45.268Z,3.30
2022-11-27T09:54:57.095Z,3.80
2022-11-27T10:05:17.851Z,3.60
2022-11-27T10:15:32.990Z,3.40
2022-11-27T10:25:40.999Z,3.43
2022-11-27T10:35:49.051Z,3.07
2022-11-27T10:45:58.391Z,2.90
2022-11-27T10:56:29.003Z,3.50
2022-11-27T11:06:35.226Z,2.80
2022-11-27T11:16:44.302Z,3.33
2022-11-27T11:26:50.434Z,3.07
2022-11-27T11:37:04.552Z,2.80
2022-11-27T11:47:07.943Z,2.80
2022-11-27T11:57:29.026Z,2.87
2022-11-27T12:07:51.965Z,2.87
2022-11-27T12:18:01.713Z,3.10
2022-11-27T12:38:45.414Z,2.20
2022-11-27T12:48:54.613Z,2.40
2022-11-27T12:59:05.886Z,1.88
2022-11-27T13:09:14.961Z,2.80
2022-11-27T13:19:26.220Z,2.33
2022-11-27T13:29:33.382Z,2.03
2022-11-27T13:39:39.981Z,2.03
2022-11-27T13:49:43.470Z,2.53
2022-11-27T13:59:59.294Z,2.33
2022-11-27T14:10:10.135Z,2.60
2022-11-27T14:20:25.511Z,3.17
2022-11-27T14:30:36.001Z,3.03
2022-11-27T14:40:40.163Z,2.90
2022-11-27T14:50:43.247Z,3.37
2022-11-27T15:00:56.568Z,3.45
2022-11-27T15:11:01.616Z,4.10
2022-11-27T15:21:11.616Z,3.53
2022-11-27T15:31:30.038Z,3.57
2022-11-27T15:41:38.344Z,3.70
2022-11-27T15:51:44.441Z,5.00
2022-11-27T16:01:49.486Z,3.93
2022-11-27T16:11:52.844Z,4.40
2022-11-27T16:21:57.834Z,5.00
2022-11-27T16:32:01.265Z,3.70
2022-11-27T16:42:05.942Z,5.27
2022-11-27T16:52:11.187Z,4.70
2022-11-27T17:02:15.743Z,5.90
2022-11-27T17:12:19.268Z,5.20
2022-11-27T17:22:23.920Z,5.10
2022-11-27T17:32:26.968Z,5.93
2022-11-27T17:42:31.432Z,5.37
2022-11-27T17:52:34.141Z,5.33
2022-11-27T18:02:39.117Z,5.60
2022-11-27T18:12:42.228Z,6.57
2022-11-27T18:22:46.713Z,6.23
2022-11-27T18:32:49.973Z,6.53
2022-11-27T18:42:54.200Z,7.97
2022-11-27T18:52:58.821Z,8.80
2022-11-27T19:03:03.284Z,7.67
2022-11-27T19:13:06.559Z,7.97
2022-11-27T19:23:11.686Z,9.20
2022-11-27T19:33:15.340Z,8.47
2022-11-27T19:43:19.844Z,7.50
2022-11-27T19:53:23.208Z,7.60
2022-11-27T20:03:28.022Z,7.37
2022-11-27T20:13:31.585Z,7.43
2022-11-27T20:23:35.970Z,6.57
2022-11-27T20:33:39.714Z,6.03
2022-11-27T20:43:44.272Z,5.60
2022-11-27T20:53:49.691Z,5.30
2022-11-27T21:03:55.195Z,4.23
2022-11-27T21:14:02.721Z,4.50
2022-11-27T21:24:08.335Z,4.43
2022-11-27T21:34:13.618Z,4.93
2022-11-27T21:44:18.833Z,3.90
2022-11-27T21:54:22.937Z,3.97
2022-11-27T22:04:27.785Z,4.80
2022-11-27T22:14:31.282Z,3.77
2022-11-27T22:24:36.328Z,4.53
2022-11-27T22:34:41.177Z,4.70
2022-11-27T22:44:46.375Z,4.77
2022-11-27T22:54:49.380Z,4.33
2022-11-27T23:04:53.969Z,5.00
2022-11-27T23:14:57.160Z,4.40
2022-11-27T23:25:01.810Z,4.03
2022-11-27T23:35:04.917Z,4.20
2022-11-27T23:45:10.531Z,5.03
2022-11-27T23:55:13.614Z,5.30
